Pacific Princess — ZCDS3 — position and weather

sailwx.info

Track history (hours):
 
Tides and Currents Weather Stations Pressure Air Temp Water Temp Dewpoint Dewpoint Depression Visibility Wind Speed Wind Dir Waves Ship Positions

Pacific Princess (Bermuda)

Last reported at 2018-Nov-15 02:00 UTC. Time now 2018-Nov-15 09:08 UTC.
Position N 40°36' E 013°30'.

Length 180.5 m; beam 25.6 m; draft 6 m.

Type: Passenger vessel. MMSI: 310504000.

Wind from 040 at 15 knots

Barometer 1023.0 mb
Air temperature 18.1 ° C
Visibility: greater than 5.4 NM
Dewpoint 12.5 ° C
Water temperature 20.0 ° C

Date/timePositionNaut miles runAvg speedWind from/ knotsBaromVisibWave heightAir tempDewpointWater temp
2018-Nov-15 02:00N 40°36' E 013°30'38 9.6 040 / 151023.0 5.4 18.112.520.0
2018-Nov-14 22:00N 40°48' E 012°42'20510.8 040 / 111026.0 5.4 18.012.721.0
2018-Nov-14 03:00N 43°06' E 009°18'90 6.9 140 / 71026.5 5.4 18.514.219.0
2018-Nov-13 14:00N 43°42' E 007°24'27 2.2 160 / 31026.5 5.4 19.515.318.0
2018-Nov-13 02:00N 43°36' E 008°00'55 2.3 020 / 101026.5 5.4 19.513.418.0
2018-Nov-12 02:00N 43°54' E 009°12'15814.4 100 / 51022.5 5.4 19.513.418.0
2018-Nov-11 15:00N 42°00' E 011°42'58 3.4 140 / 51021.5 5.4 19.513.418.0
2018-Nov-10 22:00N 41°18' E 012°36'5321.7 050 / 111019.5 5.4 17.513.121.0
2018-Nov-10 19:34N 40°49' E 013°34'117.5
2018-Nov-10 19:31N 40°48' E 013°35'917.6
2018-Nov-10 19:02N 40°43' E 013°44'917.1
2018-Nov-10 18:32N 40°39' E 013°54'816.4
2018-Nov-10 18:03N 40°39' E 014°04'817.0
2018-Nov-10 17:33N 40°45' E 014°12'611.2
2018-Nov-10 17:02N 40°50' E 014°16'0 0.8
2018-Nov-10 16:31N 40°50' E 014°15'0 0.0
2018-Nov-10 16:01N 40°50' E 014°15'0 0.0
2018-Nov-10 15:31N 40°50' E 014°15'0 0.0
2018-Nov-10 15:01N 40°50' E 014°15'0 0.0
2018-Nov-10 14:31N 40°50' E 014°15'0 0.0
2018-Nov-10 14:01N 40°50' E 014°15'0 0.0
2018-Nov-10 13:31N 40°50' E 014°15'0 0.0
2018-Nov-10 13:01N 40°50' E 014°15'0 0.0
2018-Nov-10 12:31N 40°50' E 014°15'0 0.0
2018-Nov-10 12:01N 40°50' E 014°15'0 0.0
2018-Nov-10 11:31N 40°50' E 014°15'0 0.0
2018-Nov-10 11:01N 40°50' E 014°15'0 0.0
2018-Nov-10 10:31N 40°50' E 014°15'0 0.0
2018-Nov-10 10:01N 40°50' E 014°15'0 0.0
2018-Nov-10 09:31N 40°50' E 014°15'0 0.0
2018-Nov-10 09:01N 40°50' E 014°15'0 0.0
2018-Nov-10 08:31N 40°50' E 014°15'0 0.0
2018-Nov-10 07:58N 40°50' E 014°15'0 0.0
2018-Nov-10 07:31N 40°50' E 014°15'0 0.0
2018-Nov-10 07:01N 40°50' E 014°15'0 0.3
2018-Nov-10 06:33N 40°50' E 014°16'2 3.6
2018-Nov-10 06:02N 40°49' E 014°17'4 8.7
2018-Nov-10 05:33N 40°45' E 014°16'612.6
2018-Nov-10 05:02N 40°39' E 014°12'714.0
2018-Nov-10 04:32N 40°33' E 014°08'714.7
2018-Nov-10 04:02N 40°26' E 014°12'714.9
2018-Nov-10 03:32N 40°19' E 014°16'815.2
2018-Nov-10 03:02N 40°13' E 014°21'815.4
2018-Nov-10 02:32N 40°06' E 014°26'2 3.4
2018-Nov-10 02:00N 40°06' E 014°24'6822.7 140 / 51016.5 5.4 19.011.818.0
2018-Nov-09 23:00N 39°06' E 015°06'3615.1 030 / 3 5.4 19.011.820.0
2018-Nov-09 20:38N 38°36' E 015°31'217.9
2018-Nov-09 20:31N 38°34' E 015°32'817.6
2018-Nov-09 20:02N 38°27' E 015°37'917.6
2018-Nov-09 19:32N 38°19' E 015°42'713.7
2018-Nov-09 19:02N 38°14' E 015°37'817.0
2018-Nov-09 18:32N 38°05' E 015°35'1017.2
2018-Nov-09 17:55N 37°55' E 015°30'1617.8
2018-Nov-09 17:02N 37°41' E 015°21'16 1.2
2018-Nov-09 03:45N 37°26' E 015°24'311.9
2018-Nov-09 03:30N 37°25' E 015°28'912.0
2018-Nov-09 02:44N 37°23' E 015°39'311.8
2018-Nov-09 02:31N 37°23' E 015°43'5 9.4
2018-Nov-09 02:00N 37°18' E 015°42'1226.4 350 / 121019.5 5.4 19.011.818.0
2018-Nov-09 01:32N 37°21' E 015°57'32113.6
2018-Nov-08 02:00N 36°18' E 022°30'5012.4 350 / 101020.5 5.4 17.015.316.0
2018-Nov-07 22:00N 36°42' E 023°24'5814.2 050 / 201022.5 5.4 18.012.722.0
2018-Nov-07 17:53N 37°38' E 023°43'515.0
2018-Nov-07 17:32N 37°43' E 023°40'714.9
2018-Nov-07 17:03N 37°50' E 023°37'612.5
2018-Nov-07 16:32N 37°56' E 023°38'0 0.9
2018-Nov-07 16:01N 37°56' E 023°38'0 0.0
2018-Nov-07 15:31N 37°56' E 023°38'0 0.0
2018-Nov-07 15:01N 37°56' E 023°38'0 0.0
2018-Nov-07 14:31N 37°56' E 023°38'0 0.0
2018-Nov-07 14:01N 37°56' E 023°38'0 0.0
2018-Nov-07 13:31N 37°56' E 023°38'0 0.0
2018-Nov-07 13:01N 37°56' E 023°38'0 0.0
2018-Nov-07 12:31N 37°56' E 023°38'0 0.0
2018-Nov-07 12:01N 37°56' E 023°38'0 0.0
2018-Nov-07 11:31N 37°56' E 023°38'0 0.0
2018-Nov-07 11:01N 37°56' E 023°38'0 0.0
2018-Nov-07 10:31N 37°56' E 023°38'0 0.0
2018-Nov-07 10:01N 37°56' E 023°38'0 0.0
2018-Nov-07 09:31N 37°56' E 023°38'0 0.0
2018-Nov-07 09:01N 37°56' E 023°38'0 0.0
2018-Nov-07 08:31N 37°56' E 023°38'0 0.0
2018-Nov-07 08:01N 37°56' E 023°38'0 0.0
2018-Nov-07 07:31N 37°56' E 023°38'0 0.0
2018-Nov-07 07:01N 37°56' E 023°38'0 0.0
2018-Nov-07 06:31N 37°56' E 023°38'0 0.0
2018-Nov-07 06:01N 37°56' E 023°38'0 0.0
2018-Nov-07 05:31N 37°56' E 023°38'0 0.0
2018-Nov-07 05:01N 37°56' E 023°38'0 0.0
2018-Nov-07 04:31N 37°56' E 023°38'2710.9
2018-Nov-07 02:00N 37°30' E 023°48'   350 / 201017.5 5.4 18.013.117.0
Track history (hours):
 
Tides and Currents Weather Stations Pressure Air Temp Water Temp Dewpoint Dewpoint Depression Visibility Wind Speed Wind Dir Waves Ship Positions

Pacific Princess (Bermuda)

Last reported at 2018-Nov-15 02:00 UTC. Time now 2018-Nov-15 09:08 UTC.
Position N 40°36' E 013°30'.

Length 180.5 m; beam 25.6 m; draft 6 m.

Type: Passenger vessel. MMSI: 310504000.

Wind from 040 at 15 knots

Barometer 1023.0 mb
Air temperature 18.1 ° C
Visibility: greater than 5.4 NM
Dewpoint 12.5 ° C
Water temperature 20.0 ° C

Date/timePositionNaut miles runAvg speedWind from/ knotsBaromVisibWave heightAir tempDewpointWater temp
2018-Nov-15 02:00N 40°36' E 013°30'38 9.6 040 / 151023.0 5.4 18.112.520.0
2018-Nov-14 22:00N 40°48' E 012°42'20510.8 040 / 111026.0 5.4 18.012.721.0
2018-Nov-14 03:00N 43°06' E 009°18'90 6.9 140 / 71026.5 5.4 18.514.219.0
2018-Nov-13 14:00N 43°42' E 007°24'27 2.2 160 / 31026.5 5.4 19.515.318.0
2018-Nov-13 02:00N 43°36' E 008°00'55 2.3 020 / 101026.5 5.4 19.513.418.0
2018-Nov-12 02:00N 43°54' E 009°12'15814.4 100 / 51022.5 5.4 19.513.418.0
2018-Nov-11 15:00N 42°00' E 011°42'58 3.4 140 / 51021.5 5.4 19.513.418.0
2018-Nov-10 22:00N 41°18' E 012°36'5321.7 050 / 111019.5 5.4 17.513.121.0
2018-Nov-10 19:34N 40°49' E 013°34'117.5
2018-Nov-10 19:31N 40°48' E 013°35'917.6
2018-Nov-10 19:02N 40°43' E 013°44'917.1
2018-Nov-10 18:32N 40°39' E 013°54'816.4
2018-Nov-10 18:03N 40°39' E 014°04'817.0
2018-Nov-10 17:33N 40°45' E 014°12'611.2
2018-Nov-10 17:02N 40°50' E 014°16'0 0.8
2018-Nov-10 16:31N 40°50' E 014°15'0 0.0
2018-Nov-10 16:01N 40°50' E 014°15'0 0.0
2018-Nov-10 15:31N 40°50' E 014°15'0 0.0
2018-Nov-10 15:01N 40°50' E 014°15'0 0.0
2018-Nov-10 14:31N 40°50' E 014°15'0 0.0
2018-Nov-10 14:01N 40°50' E 014°15'0 0.0
2018-Nov-10 13:31N 40°50' E 014°15'0 0.0
2018-Nov-10 13:01N 40°50' E 014°15'0 0.0
2018-Nov-10 12:31N 40°50' E 014°15'0 0.0
2018-Nov-10 12:01N 40°50' E 014°15'0 0.0
2018-Nov-10 11:31N 40°50' E 014°15'0 0.0
2018-Nov-10 11:01N 40°50' E 014°15'0 0.0
2018-Nov-10 10:31N 40°50' E 014°15'0 0.0
2018-Nov-10 10:01N 40°50' E 014°15'0 0.0
2018-Nov-10 09:31N 40°50' E 014°15'0 0.0
2018-Nov-10 09:01N 40°50' E 014°15'0 0.0
2018-Nov-10 08:31N 40°50' E 014°15'0 0.0
2018-Nov-10 07:58N 40°50' E 014°15'0 0.0
2018-Nov-10 07:31N 40°50' E 014°15'0 0.0
2018-Nov-10 07:01N 40°50' E 014°15'0 0.3
2018-Nov-10 06:33N 40°50' E 014°16'2 3.6
2018-Nov-10 06:02N 40°49' E 014°17'4 8.7
2018-Nov-10 05:33N 40°45' E 014°16'612.6
2018-Nov-10 05:02N 40°39' E 014°12'714.0
2018-Nov-10 04:32N 40°33' E 014°08'714.7
2018-Nov-10 04:02N 40°26' E 014°12'714.9
2018-Nov-10 03:32N 40°19' E 014°16'815.2
2018-Nov-10 03:02N 40°13' E 014°21'815.4
2018-Nov-10 02:32N 40°06' E 014°26'2 3.4
2018-Nov-10 02:00N 40°06' E 014°24'6822.7 140 / 51016.5 5.4 19.011.818.0
2018-Nov-09 23:00N 39°06' E 015°06'3615.1 030 / 3 5.4 19.011.820.0
2018-Nov-09 20:38N 38°36' E 015°31'217.9
2018-Nov-09 20:31N 38°34' E 015°32'817.6
2018-Nov-09 20:02N 38°27' E 015°37'917.6
2018-Nov-09 19:32N 38°19' E 015°42'713.7
2018-Nov-09 19:02N 38°14' E 015°37'817.0
2018-Nov-09 18:32N 38°05' E 015°35'1017.2
2018-Nov-09 17:55N 37°55' E 015°30'1617.8
2018-Nov-09 17:02N 37°41' E 015°21'16 1.2
2018-Nov-09 03:45N 37°26' E 015°24'311.9
2018-Nov-09 03:30N 37°25' E 015°28'912.0
2018-Nov-09 02:44N 37°23' E 015°39'311.8
2018-Nov-09 02:31N 37°23' E 015°43'5 9.4
2018-Nov-09 02:00N 37°18' E 015°42'1226.4 350 / 121019.5 5.4 19.011.818.0
2018-Nov-09 01:32N 37°21' E 015°57'32113.6
2018-Nov-08 02:00N 36°18' E 022°30'5012.4 350 / 101020.5 5.4 17.015.316.0
2018-Nov-07 22:00N 36°42' E 023°24'5814.2 050 / 201022.5 5.4 18.012.722.0
2018-Nov-07 17:53N 37°38' E 023°43'515.0
2018-Nov-07 17:32N 37°43' E 023°40'714.9
2018-Nov-07 17:03N 37°50' E 023°37'612.5
2018-Nov-07 16:32N 37°56' E 023°38'0 0.9
2018-Nov-07 16:01N 37°56' E 023°38'0 0.0
2018-Nov-07 15:31N 37°56' E 023°38'0 0.0
2018-Nov-07 15:01N 37°56' E 023°38'0 0.0
2018-Nov-07 14:31N 37°56' E 023°38'0 0.0
2018-Nov-07 14:01N 37°56' E 023°38'0 0.0
2018-Nov-07 13:31N 37°56' E 023°38'0 0.0
2018-Nov-07 13:01N 37°56' E 023°38'0 0.0
2018-Nov-07 12:31N 37°56' E 023°38'0 0.0
2018-Nov-07 12:01N 37°56' E 023°38'0 0.0
2018-Nov-07 11:31N 37°56' E 023°38'0 0.0
2018-Nov-07 11:01N 37°56' E 023°38'0 0.0
2018-Nov-07 10:31N 37°56' E 023°38'0 0.0
2018-Nov-07 10:01N 37°56' E 023°38'0 0.0
2018-Nov-07 09:31N 37°56' E 023°38'0 0.0
2018-Nov-07 09:01N 37°56' E 023°38'0 0.0
2018-Nov-07 08:31N 37°56' E 023°38'0 0.0
2018-Nov-07 08:01N 37°56' E 023°38'0 0.0
2018-Nov-07 07:31N 37°56' E 023°38'0 0.0
2018-Nov-07 07:01N 37°56' E 023°38'0 0.0
2018-Nov-07 06:31N 37°56' E 023°38'0 0.0
2018-Nov-07 06:01N 37°56' E 023°38'0 0.0
2018-Nov-07 05:31N 37°56' E 023°38'0 0.0
2018-Nov-07 05:01N 37°56' E 023°38'0 0.0
2018-Nov-07 04:31N 37°56' E 023°38'2710.9
2018-Nov-07 02:00N 37°30' E 023°48'   350 / 201017.5 5.4 18.013.117.0

Dump ship's entire track history